Time;durP1;ratioP1;P1;durP2;ratioP2;P2;SDS_P1;SDS_P2;PMS_P1;PMS_P2;Temp;Humidity;BMP_temperature;BMP_pressure;BME280_temperature;BME280_humidity;BME280_pressure;Samples;Min_cycle;Max_cycle;Signal;HPM_P1;HPM_P2
2023/09/14 00:00:31;;;;;;;11.18;3.67;;;;;;;18.51;100.00;94700.00;5020145;28;20480;-82
2023/09/14 00:02:57;;;;;;;7.88;3.15;;;;;;;18.32;100.00;94692.28;5036617;28;20143;-82
2023/09/14 00:05:22;;;;;;;7.90;3.15;;;;;;;18.23;100.00;94694.13;5037974;28;20176;-82
2023/09/14 00:07:48;;;;;;;9.82;3.53;;;;;;;18.22;100.00;94692.56;5035571;28;20120;-82
2023/09/14 00:10:14;;;;;;;6.68;3.38;;;;;;;17.85;100.00;94687.41;5036679;28;20139;-82
2023/09/14 00:12:39;;;;;;;9.07;3.40;;;;;;;17.72;100.00;94683.00;5036523;28;20107;-82
2023/09/14 00:15:05;;;;;;;7.07;3.17;;;;;;;17.50;100.00;94682.72;5036206;28;20049;-82
2023/09/14 00:17:31;;;;;;;5.55;3.53;;;;;;;16.98;100.00;94682.34;5037813;28;20038;-82
2023/09/14 00:19:56;;;;;;;9.20;4.22;;;;;;;16.89;100.00;94685.72;5036242;28;20084;-82
2023/09/14 00:22:21;;;;;;;11.13;4.20;;;;;;;16.80;100.00;94687.50;5036431;28;20037;-82
2023/09/14 00:24:47;;;;;;;7.35;3.83;;;;;;;16.81;100.00;94681.13;5036227;28;20029;-82
2023/09/14 00:27:12;;;;;;;8.43;3.95;;;;;;;16.78;100.00;94689.69;5036179;28;20041;-82
2023/09/14 00:29:38;;;;;;;9.48;4.78;;;;;;;16.76;100.00;94689.97;5036090;28;20039;-82
2023/09/14 00:32:03;;;;;;;10.70;3.83;;;;;;;16.81;100.00;94695.16;5019450;28;20060;-82
2023/09/14 00:34:29;;;;;;;8.45;4.03;;;;;;;16.95;100.00;94689.03;5019113;28;20042;-82
2023/09/14 00:36:54;;;;;;;6.95;3.63;;;;;;;17.17;100.00;94687.50;5037142;28;20029;-82
2023/09/14 00:39:20;;;;;;;8.25;4.10;;;;;;;17.32;100.00;94681.84;5036239;28;20052;-82
2023/09/14 00:41:46;;;;;;;6.93;3.47;;;;;;;17.42;100.00;94682.69;5037242;28;20033;-82
2023/09/14 00:44:12;;;;;;;10.70;3.90;;;;;;;17.55;100.00;94683.69;5035645;28;20033;-82
2023/09/14 00:46:37;;;;;;;6.45;3.78;;;;;;;17.65;100.00;94681.56;5036987;28;20041;-82
2023/09/14 00:49:02;;;;;;;11.70;3.40;;;;;;;17.47;100.00;94679.91;5035637;28;20033;-82
2023/09/14 00:51:29;;;;;;;5.93;3.63;;;;;;;17.43;100.00;94678.94;5035775;28;20473;-82
2023/09/14 00:53:55;;;;;;;9.63;3.60;;;;;;;17.42;100.00;94687.97;5035595;28;20041;-82
2023/09/14 00:56:21;;;;;;;11.48;3.63;;;;;;;17.29;100.00;94679.03;5047170;28;20444;-82
2023/09/14 00:58:47;;;;;;;7.15;3.67;;;;;;;17.44;100.00;94681.31;5051930;28;20040;-82
2023/09/14 01:01:14;;;;;;;6.28;3.30;;;;;;;17.30;100.00;94681.38;5052002;28;20033;-82
2023/09/14 01:03:40;;;;;;;8.80;4.25;;;;;;;17.28;100.00;94686.19;5019655;28;20029;-82
2023/09/14 01:06:05;;;;;;;9.40;4.07;;;;;;;17.06;100.00;94693.03;5052078;28;20040;-82
2023/09/14 01:08:31;;;;;;;15.00;4.30;;;;;;;16.84;100.00;94690.34;5035741;28;20033;-82
2023/09/14 01:10:57;;;;;;;9.07;4.30;;;;;;;16.76;100.00;94684.66;5053551;28;20059;-81
2023/09/14 01:13:46;;;;;;;9.68;4.50;;;;;;;16.64;100.00;94690.50;5053453;28;20346;-81
2023/09/14 01:16:19;;;;;;;9.73;4.57;;;;;;;16.88;100.00;94683.38;5056367;28;20029;-81
2023/09/14 01:18:53;;;;;;;10.43;4.57;;;;;;;16.79;100.00;94688.59;5056428;28;20036;-81
2023/09/14 01:21:37;;;;;;;12.65;4.45;;;;;;;17.02;100.00;94692.06;5031784;28;20037;-82
2023/09/14 01:24:26;;;;;;;10.57;4.10;;;;;;;16.70;100.00;94685.88;5053606;28;20112;-82
2023/09/14 01:26:51;;;;;;;9.88;4.47;;;;;;;16.67;100.00;94689.88;5055976;28;20106;-82
2023/09/14 01:29:17;;;;;;;13.85;4.00;;;;;;;16.61;100.00;94683.16;5039036;28;20064;-82
2023/09/14 01:31:42;;;;;;;10.10;3.70;;;;;;;16.85;100.00;94678.69;5031933;28;20430;-81
2023/09/14 01:34:08;;;;;;;8.43;4.25;;;;;;;16.92;100.00;94693.06;5023381;28;20132;-81
2023/09/14 01:36:42;;;;;;;11.00;4.47;;;;;;;17.05;100.00;94675.59;5055806;28;20094;-81
2023/09/14 01:39:08;;;;;;;5.53;3.53;;;;;;;17.16;100.00;94670.06;5057346;28;20029;-82
2023/09/14 01:41:34;;;;;;;6.72;3.90;;;;;;;17.16;100.00;94678.00;5056378;28;20055;-81
2023/09/14 01:44:00;;;;;;;10.73;4.15;;;;;;;16.85;100.00;94676.81;5056150;28;20025;-81
2023/09/14 01:46:26;;;;;;;13.52;4.32;;;;;;;16.84;100.00;94685.81;5039486;28;20120;-81
2023/09/14 01:48:51;;;;;;;8.10;4.10;;;;;;;16.87;100.00;94685.25;5022689;28;20438;-81
2023/09/14 01:51:17;;;;;;;8.35;4.35;;;;;;;16.77;100.00;94683.59;5057104;28;20071;-82
2023/09/14 01:53:43;;;;;;;11.57;4.00;;;;;;;16.71;100.00;94679.50;5037794;28;20045;-82
2023/09/14 01:56:09;;;;;;;6.35;3.83;;;;;;;16.75;100.00;94682.34;5021270;28;20127;-81
2023/09/14 01:58:34;;;;;;;8.13;4.13;;;;;;;16.51;100.00;94678.88;5054413;28;20032;-81
2023/09/14 02:00:59;;;;;;;9.90;4.13;;;;;;;16.52;100.00;94687.56;5037343;28;20123;-82
2023/09/14 02:03:26;;;;;;;7.72;3.97;;;;;;;16.98;100.00;94683.16;5037839;28;20037;-82
2023/09/14 02:06:01;;;;;;;10.05;4.25;;;;;;;16.90;100.00;94679.34;5055596;28;20033;-81
2023/09/14 02:08:26;;;;;;;7.03;4.50;;;;;;;16.32;100.00;94670.25;5053989;28;20037;-82
2023/09/14 02:10:52;;;;;;;12.98;4.82;;;;;;;16.18;100.00;94672.94;5054285;28;20032;-81
2023/09/14 02:13:17;;;;;;;9.95;4.85;;;;;;;16.39;100.00;94676.72;5054007;28;20036;-82
2023/09/14 02:15:43;;;;;;;7.47;4.28;;;;;;;16.31;100.00;94674.00;5055425;28;20459;-82
2023/09/14 02:18:08;;;;;;;11.93;4.38;;;;;;;16.36;100.00;94673.91;5037596;28;20037;-81
2023/09/14 02:20:35;;;;;;;6.80;4.20;;;;;;;16.31;100.00;94672.16;5054226;28;20043;-82
2023/09/14 02:23:03;;;;;;;9.02;4.80;;;;;;;16.19;100.00;94675.28;5054010;28;20112;-82
2023/09/14 02:25:29;;;;;;;10.48;4.85;;;;;;;16.00;100.00;94667.47;5054009;28;20033;-82
2023/09/14 02:27:54;;;;;;;9.07;4.32;;;;;;;16.17;100.00;94666.84;5020769;28;20044;-82
2023/09/14 02:30:20;;;;;;;10.63;4.65;;;;;;;16.40;100.00;94666.94;5055230;28;20457;-82
2023/09/14 02:32:45;;;;;;;7.38;4.25;;;;;;;16.37;100.00;94670.19;5053529;28;20037;-82
2023/09/14 02:35:10;;;;;;;9.20;4.82;;;;;;;16.11;100.00;94671.47;5053821;28;20040;-82
2023/09/14 02:37:36;;;;;;;12.90;4.18;;;;;;;16.33;100.00;94671.84;5055112;28;20036;-82
2023/09/14 02:40:01;;;;;;;6.88;3.92;;;;;;;16.48;100.00;94674.16;5053869;28;20037;-82
2023/09/14 02:42:27;;;;;;;8.07;4.03;;;;;;;16.49;100.00;94673.06;5053776;28;20036;-82
2023/09/14 02:44:54;;;;;;;6.82;3.85;;;;;;;16.57;100.00;94661.03;5037132;28;20441;-82
2023/09/14 02:47:19;;;;;;;11.77;4.53;;;;;;;16.15;100.00;94671.66;5037302;28;20058;-82
2023/09/14 02:49:45;;;;;;;9.90;4.35;;;;;;;16.15;100.00;94666.38;5053652;28;20041;-82
2023/09/14 02:52:11;;;;;;;9.07;4.22;;;;;;;16.01;100.00;94665.59;5054954;28;20086;-81
2023/09/14 02:54:37;;;;;;;13.95;4.85;;;;;;;15.91;100.00;94662.06;5053590;28;20032;-82
2023/09/14 02:57:02;;;;;;;6.47;4.05;;;;;;;15.86;100.00;94659.50;5053803;28;20040;-82
2023/09/14 02:59:28;;;;;;;11.65;4.88;;;;;;;15.92;100.00;94662.84;5054760;28;20358;-81
2023/09/14 03:01:54;;;;;;;8.57;4.43;;;;;;;16.00;100.00;94664.03;5053626;28;20468;-82
2023/09/14 03:04:20;;;;;;;8.23;5.00;;;;;;;16.15;100.00;94660.31;5053659;28;20052;-81
2023/09/14 03:06:46;;;;;;;11.70;5.05;;;;;;;15.97;100.00;94663.53;5053540;28;20048;-82
2023/09/14 03:09:12;;;;;;;7.97;4.38;;;;;;;16.07;100.00;94659.16;5053623;28;20095;-82
2023/09/14 03:11:37;;;;;;;10.75;4.65;;;;;;;16.34;100.00;94657.53;5036950;28;20064;-81
2023/09/14 03:14:03;;;;;;;9.07;4.43;;;;;;;16.42;100.00;94648.13;5036831;28;20033;-81
2023/09/14 03:16:28;;;;;;;7.35;3.78;;;;;;;16.40;100.00;94651.06;5053252;28;20357;-82
2023/09/14 03:18:53;;;;;;;11.95;4.50;;;;;;;16.51;100.00;94638.41;5053394;28;20119;-82
2023/09/14 03:21:26;;;;;;;9.43;4.82;;;;;;;16.05;100.00;94637.50;5054536;28;20040;-82
2023/09/14 03:23:52;;;;;;;9.93;4.40;;;;;;;16.07;100.00;94638.00;5053341;28;20028;-82
2023/09/14 03:26:18;;;;;;;8.30;4.47;;;;;;;16.04;100.00;94644.66;5036615;28;20032;-82
2023/09/14 03:28:44;;;;;;;8.27;4.05;;;;;;;16.11;100.00;94645.03;5053078;28;20472;-82
2023/09/14 03:31:09;;;;;;;7.22;4.10;;;;;;;16.25;100.00;94642.38;5038389;28;20146;-81
2023/09/14 03:33:35;;;;;;;10.85;4.45;;;;;;;16.39;100.00;94646.88;5037886;28;20037;-82
2023/09/14 03:36:01;;;;;;;11.68;4.22;;;;;;;16.22;100.00;94644.81;5055915;28;20037;-81
2023/09/14 03:38:28;;;;;;;8.18;4.32;;;;;;;15.90;100.00;94647.28;5054566;28;20029;-81
2023/09/14 03:40:56;;;;;;;9.48;4.50;;;;;;;15.77;100.00;94651.47;5054572;28;20083;-81
2023/09/14 03:43:22;;;;;;;8.35;5.28;;;;;;;15.86;100.00;94643.66;5038729;28;20450;-81
2023/09/14 03:45:49;;;;;;;11.82;4.68;;;;;;;15.82;100.00;94654.00;5057871;28;20043;-81
2023/09/14 03:48:15;;;;;;;9.38;4.53;;;;;;;16.05;100.00;94650.72;5057491;28;20033;-81
2023/09/14 03:50:41;;;;;;;6.15;4.22;;;;;;;16.12;100.00;94656.41;5058166;28;20040;-81
2023/09/14 03:53:08;;;;;;;8.73;4.63;;;;;;;16.19;100.00;94645.41;5058175;28;20505;-81
2023/09/14 03:55:35;;;;;;;7.65;4.35;;;;;;;16.17;100.00;94645.72;5059319;28;20333;-81
2023/09/14 03:58:00;;;;;;;8.60;3.95;;;;;;;16.22;100.00;94644.81;5059205;28;20335;-81
2023/09/14 04:00:27;;;;;;;6.20;4.28;;;;;;;16.23;100.00;94643.75;5057923;28;20059;-81
2023/09/14 04:02:52;;;;;;;11.13;4.57;;;;;;;16.29;100.00;94641.78;5057802;28;20048;-82
2023/09/14 04:05:18;;;;;;;11.63;3.95;;;;;;;16.34;100.00;94639.03;5057953;28;20338;-81
2023/09/14 04:07:44;;;;;;;11.00;3.95;;;;;;;16.39;100.00;94638.94;5058945;28;20119;-82
2023/09/14 04:10:10;;;;;;;7.53;3.67;;;;;;;16.50;100.00;94642.13;5058132;28;20068;-81
2023/09/14 04:12:38;;;;;;;7.80;3.88;;;;;;;16.55;100.00;94649.94;5057829;28;20035;-81
2023/09/14 04:15:04;;;;;;;7.53;4.13;;;;;;;16.54;100.00;94635.97;5020536;28;20037;-81
2023/09/14 04:17:29;;;;;;;10.48;4.10;;;;;;;16.17;100.00;94637.78;5037676;28;20437;-81
2023/09/14 04:19:55;;;;;;;9.18;4.85;;;;;;;15.90;100.00;94639.34;5039845;28;20098;-81
2023/09/14 04:22:20;;;;;;;7.97;3.95;;;;;;;15.84;100.00;94638.63;5057667;28;20036;-81
2023/09/14 04:24:46;;;;;;;9.77;3.75;;;;;;;15.97;100.00;94650.34;5057601;28;20024;-81
2023/09/14 04:27:11;;;;;;;8.25;3.92;;;;;;;16.11;100.00;94641.63;5057503;28;20078;-81
2023/09/14 04:29:36;;;;;;;8.13;3.72;;;;;;;16.20;100.00;94645.13;5040762;28;20029;-82
2023/09/14 04:32:03;;;;;;;6.32;3.50;;;;;;;16.28;100.00;94650.78;5057485;28;20119;-81
2023/09/14 04:34:28;;;;;;;10.40;4.13;;;;;;;16.14;100.00;94641.03;5041064;28;20032;-81
2023/09/14 04:36:54;;;;;;;5.88;3.85;;;;;;;15.95;100.00;94649.06;5057269;28;20031;-81
2023/09/14 04:39:19;;;;;;;9.23;4.65;;;;;;;15.89;100.00;94648.38;5058422;28;20033;-81
2023/09/14 04:41:45;;;;;;;15.68;4.60;;;;;;;15.90;100.00;94647.28;5057097;28;20158;-81
2023/09/14 04:44:11;;;;;;;6.68;3.80;;;;;;;16.12;100.00;94656.41;5058320;28;20090;-81
2023/09/14 04:46:36;;;;;;;10.32;4.63;;;;;;;16.13;100.00;94651.88;5057274;28;20422;-81
2023/09/14 04:49:01;;;;;;;9.13;4.50;;;;;;;15.80;100.00;94656.16;5057362;28;20029;-81
2023/09/14 04:51:27;;;;;;;9.57;4.75;;;;;;;15.46;100.00;94657.31;5040622;28;20524;-81
2023/09/14 04:53:53;;;;;;;10.95;4.93;;;;;;;15.68;100.00;94661.13;5040178;28;20032;-81
2023/09/14 04:56:19;;;;;;;9.82;4.57;;;;;;;15.90;100.00;94662.38;5056849;28;20338;-81
2023/09/14 04:58:45;;;;;;;9.95;4.30;;;;;;;15.85;100.00;94663.22;5058032;28;20031;-81
2023/09/14 05:01:10;;;;;;;6.63;4.35;;;;;;;15.68;100.00;94669.84;5040485;28;20141;-81
2023/09/14 05:03:35;;;;;;;10.70;4.68;;;;;;;15.65;100.00;94677.56;5037643;28;20036;-82
2023/09/14 05:06:02;;;;;;;8.73;4.90;;;;;;;15.77;100.00;94677.88;5036884;28;20033;-82
2023/09/14 05:08:28;;;;;;;10.60;4.45;;;;;;;15.82;100.00;94672.50;5036766;28;20071;-82
2023/09/14 05:10:53;;;;;;;8.85;4.72;;;;;;;15.97;100.00;94682.03;5045414;28;20033;-82
2023/09/14 05:13:20;;;;;;;9.15;4.07;;;;;;;16.17;100.00;94684.59;5040216;28;20494;-82
2023/09/14 05:15:46;;;;;;;9.95;5.07;;;;;;;15.91;100.00;94679.78;5056720;28;20029;-82
2023/09/14 05:18:12;;;;;;;9.20;4.55;;;;;;;15.61;100.00;94680.00;5056518;28;20025;-82
2023/09/14 05:20:44;;;;;;;10.38;4.97;;;;;;;15.50;100.00;94687.34;5056507;28;20327;-82
2023/09/14 05:23:10;;;;;;;9.52;5.25;;;;;;;15.67;100.00;94688.63;5056577;28;20032;-82
2023/09/14 05:25:35;;;;;;;9.63;5.18;;;;;;;15.61;100.00;94690.56;5056374;28;20020;-82
2023/09/14 05:28:01;;;;;;;7.47;4.05;;;;;;;15.61;100.00;94693.22;5056352;28;20460;-82
2023/09/14 05:30:26;;;;;;;6.93;4.53;;;;;;;15.89;100.00;94700.41;5056483;28;20025;-82
2023/09/14 05:32:51;;;;;;;10.75;5.00;;;;;;;16.02;100.00;94697.03;5056267;28;20031;-82
2023/09/14 05:35:18;;;;;;;13.00;4.45;;;;;;;16.08;100.00;94705.63;5056863;28;20025;-81
2023/09/14 05:37:44;;;;;;;7.57;4.40;;;;;;;15.84;100.00;94702.03;5056099;28;20024;-82
2023/09/14 05:40:10;;;;;;;9.90;4.57;;;;;;;15.95;100.00;94704.53;5057241;28;20075;-82
2023/09/14 05:42:37;;;;;;;10.90;4.38;;;;;;;16.06;100.00;94700.63;5055622;28;20123;-82
2023/09/14 05:45:07;;;;;;;10.55;4.53;;;;;;;16.37;100.00;94704.56;5056136;28;20115;-82
2023/09/14 05:47:33;;;;;;;6.90;4.68;;;;;;;16.66;100.00;94703.44;5055947;28;20063;-82
2023/09/14 05:49:58;;;;;;;11.80;4.45;;;;;;;16.71;100.00;94705.97;5056987;28;20402;-82
2023/09/14 05:52:24;;;;;;;6.50;4.15;;;;;;;16.74;100.00;94702.72;5035460;28;20120;-82
2023/09/14 05:54:50;;;;;;;6.78;3.90;;;;;;;17.16;100.00;94715.84;5037199;28;20346;-82
2023/09/14 05:57:16;;;;;;;8.60;4.22;;;;;;;17.44;100.00;94712.28;5037047;28;20025;-82
2023/09/14 05:59:41;;;;;;;7.68;4.30;;;;;;;17.40;100.00;94720.06;5036110;28;20116;-82
2023/09/14 06:02:08;;;;;;;10.13;4.15;;;;;;;17.17;100.00;94729.88;5036094;28;20426;-82
2023/09/14 06:04:33;;;;;;;9.43;4.10;;;;;;;17.15;100.00;94726.75;5047268;28;20426;-82
2023/09/14 06:06:59;;;;;;;5.97;3.78;;;;;;;17.52;100.00;94722.94;5056336;28;20040;-82
2023/09/14 06:09:27;;;;;;;5.30;3.83;;;;;;;17.71;100.00;94721.19;5055708;28;20028;-82
2023/09/14 06:11:54;;;;;;;9.55;3.50;;;;;;;17.91;100.00;94717.22;5055640;28;20492;-82
2023/09/14 06:14:19;;;;;;;8.70;3.75;;;;;;;17.89;100.00;94722.06;5055631;28;20437;-82
2023/09/14 06:16:45;;;;;;;6.57;3.90;;;;;;;17.99;100.00;94724.41;5055630;28;20035;-82
2023/09/14 06:19:10;;;;;;;8.90;3.97;;;;;;;17.98;100.00;94727.41;5055322;28;20032;-82
2023/09/14 06:21:36;;;;;;;9.82;4.28;;;;;;;17.84;100.00;94725.63;5055467;28;20025;-82
2023/09/14 06:24:01;;;;;;;5.32;3.58;;;;;;;18.21;100.00;94725.47;5055764;28;20021;-82
2023/09/14 06:26:28;;;;;;;10.77;3.90;;;;;;;18.46;100.00;94724.00;5055538;28;20024;-82
2023/09/14 06:28:53;;;;;;;10.25;4.15;;;;;;;18.47;100.00;94724.78;5055293;28;20043;-82
2023/09/14 06:31:19;;;;;;;7.45;3.60;;;;;;;18.72;100.00;94717.16;5056595;28;20029;-82
2023/09/14 06:33:44;;;;;;;7.05;3.60;;;;;;;18.72;100.00;94723.25;5055185;28;20040;-82
2023/09/14 06:36:10;;;;;;;8.30;4.10;;;;;;;18.13;100.00;94721.72;5055377;28;20047;-82
2023/09/14 06:38:35;;;;;;;7.78;3.85;;;;;;;18.64;100.00;94722.16;5038605;28;20028;-82
2023/09/14 06:41:00;;;;;;;8.02;3.42;;;;;;;18.74;100.00;94729.03;5055309;28;20357;-82
2023/09/14 06:43:26;;;;;;;6.95;3.75;;;;;;;18.69;100.00;94725.75;5055517;28;20082;-82
2023/09/14 06:45:54;;;;;;;9.45;3.90;;;;;;;18.36;100.00;94722.41;5055224;28;20086;-82
2023/09/14 06:48:19;;;;;;;8.30;3.78;;;;;;;18.54;100.00;94724.34;5055292;28;20021;-83
2023/09/14 06:50:46;;;;;;;9.68;3.85;;;;;;;18.48;100.00;94723.69;5038459;28;20025;-82
2023/09/14 06:53:16;;;;;;;8.88;4.07;;;;;;;18.69;100.00;94731.06;5038767;28;20438;-82
2023/09/14 06:55:42;;;;;;;10.85;3.90;;;;;;;18.89;100.00;94724.38;5038636;28;20025;-82
2023/09/14 06:58:08;;;;;;;7.07;3.67;;;;;;;19.12;100.00;94732.22;5055085;28;20414;-83
2023/09/14 07:00:35;;;;;;;6.68;3.63;;;;;;;18.93;100.00;94730.63;5055132;28;20031;-83
2023/09/14 07:03:02;;;;;;;13.10;3.97;;;;;;;19.16;100.00;94725.19;5055222;28;20081;-83
2023/09/14 07:05:28;;;;;;;6.13;3.40;;;;;;;19.52;100.00;94721.41;5055158;28;20460;-83
2023/09/14 07:07:53;;;;;;;6.45;3.45;;;;;;;19.54;100.00;94724.53;5056188;28;20021;-83
2023/09/14 07:10:18;;;;;;;8.93;3.65;;;;;;;19.60;100.00;94727.81;5055034;28;20028;-83
2023/09/14 07:12:44;;;;;;;6.18;3.50;;;;;;;19.75;100.00;94726.50;5056235;28;20107;-83
2023/09/14 07:15:10;;;;;;;9.55;4.05;;;;;;;19.49;100.00;94735.31;5038517;28;20032;-82
2023/09/14 07:17:35;;;;;;;10.77;4.13;;;;;;;19.41;100.00;94733.47;5054951;28;20025;-82
2023/09/14 07:20:01;;;;;;;8.73;3.45;;;;;;;19.58;100.00;94743.28;5058671;28;20036;-83
2023/09/14 07:22:26;;;;;;;7.38;3.42;;;;;;;19.89;100.00;94736.97;5058830;28;20025;-83
2023/09/14 07:24:52;;;;;;;4.72;3.35;;;;;;;19.87;100.00;94733.81;5042067;28;20021;-83
2023/09/14 07:27:17;;;;;;;5.80;3.38;;;;;;;19.84;100.00;94748.56;5042261;28;20369;-83
2023/09/14 07:29:43;;;;;;;7.82;3.53;;;;;;;20.06;100.00;94747.56;5059902;28;20115;-83
2023/09/14 07:32:09;;;;;;;6.15;3.50;;;;;;;20.22;100.00;94744.38;5059867;28;20025;-84
2023/09/14 07:34:34;;;;;;;7.90;3.40;;;;;;;20.40;100.00;94747.75;5058591;28;20025;-83
2023/09/14 07:36:59;;;;;;;5.78;3.10;;;;;;;20.66;100.00;94746.84;5041711;28;20032;-83
2023/09/14 07:39:25;;;;;;;8.20;3.67;;;;;;;20.81;100.00;94750.84;5058460;28;20021;-83
2023/09/14 07:41:55;;;;;;;7.53;3.78;;;;;;;20.90;100.00;94745.44;5059650;28;20083;-84
2023/09/14 07:44:21;;;;;;;5.05;3.25;;;;;;;20.77;100.00;94748.00;5058518;28;20021;-84
2023/09/14 07:46:46;;;;;;;8.98;3.35;;;;;;;20.88;100.00;94753.78;5058458;28;20036;-83
2023/09/14 07:49:11;;;;;;;10.73;3.47;;;;;;;21.07;100.00;94754.41;5058283;28;20345;-83
2023/09/14 07:51:37;;;;;;;8.00;3.10;;;;;;;21.11;100.00;94755.34;5041797;28;20028;-83
2023/09/14 07:54:02;;;;;;;5.00;3.08;;;;;;;21.30;100.00;94755.66;5041472;28;20102;-84
2023/09/14 07:56:28;;;;;;;6.75;4.00;;;;;;;21.36;100.00;94768.78;5058217;28;20056;-83
2023/09/14 07:58:53;;;;;;;5.85;2.95;;;;;;;21.44;100.00;94770.59;5041330;28;20032;-83
2023/09/14 08:01:19;;;;;;;6.85;3.38;;;;;;;21.45;100.00;94777.50;5042224;28;20362;-83
2023/09/14 08:03:45;;;;;;;19.58;3.30;;;;;;;21.30;100.00;94771.66;5038026;28;20026;-83
2023/09/14 08:06:10;;;;;;;12.70;4.00;;;;;;;21.29;100.00;94782.63;5037915;28;20037;-84
2023/09/14 08:08:36;;;;;;;7.57;3.20;;;;;;;21.30;100.00;94774.31;5037855;28;20033;-84
2023/09/14 08:11:01;;;;;;;7.38;3.25;;;;;;;21.49;100.00;94773.06;5038017;28;20029;-83
2023/09/14 08:13:27;;;;;;;9.13;3.20;;;;;;;21.87;100.00;94780.09;5037902;28;20033;-84
2023/09/14 08:15:52;;;;;;;8.68;3.40;;;;;;;21.84;100.00;94783.44;5037870;28;20044;-84
2023/09/14 08:18:19;;;;;;;4.45;3.20;;;;;;;22.19;100.00;94784.97;5021339;28;20040;-84
2023/09/14 08:20:44;;;;;;;5.63;3.13;;;;;;;22.20;100.00;94775.06;5037905;28;20029;-83
2023/09/14 08:23:12;;;;;;;6.97;3.10;;;;;;;22.34;100.00;94778.19;5037685;28;20040;-83
2023/09/14 08:25:37;;;;;;;4.70;2.63;;;;;;;22.50;100.00;94775.69;5038005;28;20355;-83
2023/09/14 08:28:04;;;;;;;8.48;2.88;;;;;;;22.90;100.00;94784.88;5037634;28;20029;-83
2023/09/14 08:30:29;;;;;;;6.07;2.90;;;;;;;22.82;100.00;94783.88;5037318;28;20358;-84
2023/09/14 08:32:55;;;;;;;7.88;2.90;;;;;;;22.94;100.00;94783.09;5037667;28;20052;-84
2023/09/14 08:35:25;;;;;;;8.85;3.25;;;;;;;22.83;100.00;94780.09;5037108;28;20051;-84
2023/09/14 08:37:54;;;;;;;8.18;3.40;;;;;;;22.74;100.00;94782.91;5037545;28;20127;-83
2023/09/14 08:40:20;;;;;;;5.97;2.78;;;;;;;22.73;100.00;94772.53;5037382;28;20124;-84
2023/09/14 08:42:52;;;;;;;8.77;3.55;;;;;;;22.82;100.00;94773.19;5037377;28;20087;-84
2023/09/14 08:45:22;;;;;;;11.48;3.97;;;;;;;23.24;100.00;94782.81;5037341;28;20120;-84
2023/09/14 08:47:49;;;;;;;8.85;3.38;;;;;;;23.51;100.00;94780.53;5037265;28;20079;-83
2023/09/14 08:50:17;;;;;;;6.90;3.38;;;;;;;24.00;100.00;94779.50;5037131;28;20051;-82
2023/09/14 08:52:43;;;;;;;4.47;3.25;;;;;;;24.14;100.00;94773.78;5037191;28;20053;-83
2023/09/14 08:55:10;;;;;;;8.05;3.30;;;;;;;24.31;97.74;94776.44;5036972;28;20033;-83
2023/09/14 08:57:36;;;;;;;7.88;4.10;;;;;;;23.44;100.00;94781.09;5037056;28;20033;-83
2023/09/14 09:00:08;;;;;;;9.63;3.78;;;;;;;23.97;100.00;94774.09;5036938;28;20111;-83
2023/09/14 09:02:35;;;;;;;6.57;3.33;;;;;;;24.13;100.00;94774.91;5046760;28;20437;-82
2023/09/14 09:05:02;;;;;;;6.38;3.63;;;;;;;24.29;97.54;94776.81;5056733;28;20349;-83
2023/09/14 09:07:28;;;;;;;6.97;4.00;;;;;;;23.66;100.00;94776.34;5057787;28;20059;-82
2023/09/14 09:09:53;;;;;;;8.57;4.40;;;;;;;23.82;99.52;94783.63;5056723;28;20037;-81
2023/09/14 09:12:19;;;;;;;7.47;4.43;;;;;;;24.00;98.06;94778.75;5040210;28;20426;-82
2023/09/14 09:14:44;;;;;;;7.95;3.95;;;;;;;24.28;95.08;94789.41;5032041;28;20033;-82
2023/09/14 09:17:09;;;;;;;9.48;3.97;;;;;;;24.18;94.73;94784.59;5020284;28;20084;-81
2023/09/14 09:19:47;;;;;;;10.73;3.95;;;;;;;24.18;95.48;94791.84;5036611;28;20492;-83
2023/09/14 09:22:14;;;;;;;8.52;3.63;;;;;;;23.98;97.27;94781.75;5036694;28;20501;-83
2023/09/14 09:24:40;;;;;;;6.50;3.25;;;;;;;24.13;96.73;94782.94;5036504;28;20021;-83
2023/09/14 09:27:26;;;;;;;8.00;3.95;;;;;;;23.95;100.00;94781.66;5020247;28;20029;-83
2023/09/14 09:29:57;;;;;;;7.50;4.03;;;;;;;23.91;99.94;94784.25;5036748;28;20484;-83
2023/09/14 09:32:22;;;;;;;6.57;3.67;;;;;;;24.01;100.00;94783.75;5036568;28;20029;-82
2023/09/14 09:34:48;;;;;;;10.80;3.95;;;;;;;24.38;99.14;94776.63;5036552;28;20041;-83
2023/09/14 09:37:15;;;;;;;6.95;3.70;;;;;;;24.58;95.18;94774.81;5036753;28;20064;-84
2023/09/14 09:39:44;;;;;;;9.68;3.90;;;;;;;23.94;100.00;94777.44;5036351;28;20449;-85
2023/09/14 09:42:12;;;;;;;11.45;4.35;;;;;;;23.71;100.00;94780.69;5052079;28;20037;-83
2023/09/14 09:44:38;;;;;;;9.13;4.07;;;;;;;23.85;100.00;94775.72;5052895;28;20036;-83
2023/09/14 09:47:04;;;;;;;7.00;4.95;;;;;;;23.68;100.00;94779.47;5036315;28;20037;-83
2023/09/14 09:49:30;;;;;;;8.43;4.07;;;;;;;23.37;100.00;94774.78;5019675;28;20033;-83
2023/09/14 09:51:57;;;;;;;7.43;4.72;;;;;;;23.46;100.00;94777.34;5036145;28;20502;-84
2023/09/14 09:54:24;;;;;;;9.80;4.65;;;;;;;23.51;100.00;94782.44;5036042;28;20084;-83
2023/09/14 09:56:51;;;;;;;14.63;5.10;;;;;;;22.83;100.00;94782.00;5036313;28;20025;-83
2023/09/14 09:59:17;;;;;;;7.47;4.80;;;;;;;23.16;100.00;94781.06;5036021;28;20028;-82
2023/09/14 10:01:48;;;;;;;8.55;4.80;;;;;;;23.25;100.00;94784.38;5035900;28;20025;-83
2023/09/14 10:04:15;;;;;;;10.25;4.60;;;;;;;23.40;100.00;94774.13;5037101;28;20108;-83
2023/09/14 10:06:43;;;;;;;7.28;4.07;;;;;;;23.33;100.00;94764.00;5037074;28;20029;-83
2023/09/14 10:09:11;;;;;;;9.75;4.05;;;;;;;23.61;100.00;94775.81;5019760;28;20041;-83
2023/09/14 10:11:37;;;;;;;7.82;4.25;;;;;;;23.49;100.00;94772.06;5035748;28;20025;-83
2023/09/14 10:14:04;;;;;;;6.93;4.57;;;;;;;23.94;100.00;94766.72;5052362;28;20193;-83
2023/09/14 10:16:41;;;;;;;6.20;4.82;;;;;;;24.03;100.00;94770.06;5035771;28;20029;-83
2023/09/14 10:19:08;;;;;;;6.85;4.05;;;;;;;23.63;100.00;94771.69;5035543;28;20030;-83
2023/09/14 10:21:35;;;;;;;8.30;4.72;;;;;;;23.93;100.00;94771.31;5035565;28;20120;-82
2023/09/14 10:24:03;;;;;;;7.70;4.43;;;;;;;23.64;100.00;94767.91;5019151;28;20100;-83
2023/09/14 10:26:29;;;;;;;6.75;4.53;;;;;;;23.83;100.00;94755.75;5036793;28;20025;-83
2023/09/14 10:28:56;;;;;;;8.25;4.50;;;;;;;24.07;100.00;94757.53;5035492;28;20182;-87
2023/09/14 10:31:23;;;;;;;8.98;4.60;;;;;;;23.52;100.00;94754.56;5035856;28;20035;-85
2023/09/14 10:33:49;;;;;;;8.57;4.85;;;;;;;23.71;100.00;94748.59;5035390;28;20059;-84
2023/09/14 10:36:15;;;;;;;10.95;4.22;;;;;;;23.67;100.00;94750.38;5052100;28;20029;-83
2023/09/14 10:38:44;;;;;;;7.70;4.82;;;;;;;23.27;100.00;94751.97;5035361;28;20350;-84
2023/09/14 10:41:11;;;;;;;12.52;5.75;;;;;;;22.91;100.00;94751.72;5035746;28;20116;-81
2023/09/14 10:43:38;;;;;;;9.75;5.72;;;;;;;23.45;100.00;94747.13;5035456;28;20032;-85
2023/09/14 10:46:04;;;;;;;9.52;5.82;;;;;;;23.63;100.00;94747.63;5042551;28;20025;-85
2023/09/14 10:48:30;;;;;;;12.98;5.78;;;;;;;23.91;100.00;94746.00;5038774;28;20032;-84
2023/09/14 10:50:59;;;;;;;6.13;4.75;;;;;;;23.57;100.00;94741.75;5055306;28;20402;-87
2023/09/14 10:53:24;;;;;;;7.93;4.93;;;;;;;23.80;100.00;94743.06;5042226;28;20056;-86
2023/09/14 10:55:50;;;;;;;10.85;4.57;;;;;;;24.07;100.00;94746.06;5042920;28;20064;-86
2023/09/14 10:58:16;;;;;;;8.05;5.43;;;;;;;25.21;97.47;94730.25;5059181;28;20406;-86
2023/09/14 11:00:45;;;;;;;9.93;5.18;;;;;;;25.22;94.30;94734.47;5059257;28;20338;-86
2023/09/14 11:03:12;;;;;;;8.23;5.28;;;;;;;24.84;97.44;94727.97;5043293;28;20457;-86
2023/09/14 11:05:43;;;;;;;8.43;5.40;;;;;;;24.19;100.00;94723.78;5042951;28;20032;-86
2023/09/14 11:08:09;;;;;;;11.60;6.22;;;;;;;23.53;100.00;94726.72;5059067;28;20135;-85
2023/09/14 11:10:37;;;;;;;12.02;5.60;;;;;;;23.78;100.00;94735.38;5058866;28;20024;-86
2023/09/14 11:13:20;;;;;;;10.82;5.18;;;;;;;25.22;100.00;94731.78;5059507;28;20094;-86
2023/09/14 11:16:07;;;;;;;7.57;5.15;;;;;;;26.17;88.58;94731.59;5060059;28;20051;-85
2023/09/14 11:18:51;;;;;;;8.45;4.88;;;;;;;26.31;87.55;94731.09;5059815;28;20078;-86
2023/09/14 11:21:32;;;;;;;10.98;4.65;;;;;;;25.80;89.04;94729.44;5058832;28;20501;-87